sensor_id;sensor_type;location;lat;lon;timestamp;P1;durP1;ratioP1;P2;durP2;ratioP2
2538;SDS011;1280;49.760;9.664;2023-06-01T00:01:53;8.33;;;3.27;;
2538;SDS011;1280;49.760;9.664;2023-06-01T00:04:33;7.87;;;3.30;;
2538;SDS011;1280;49.760;9.664;2023-06-01T00:07:14;7.20;;;3.20;;
2538;SDS011;1280;49.760;9.664;2023-06-01T00:09:50;6.43;;;3.37;;
2538;SDS011;1280;49.760;9.664;2023-06-01T00:12:29;5.77;;;3.07;;
2538;SDS011;1280;49.760;9.664;2023-06-01T00:15:05;6.30;;;3.13;;
2538;SDS011;1280;49.760;9.664;2023-06-01T00:17:46;10.30;;;3.40;;
2538;SDS011;1280;49.760;9.664;2023-06-01T00:20:23;8.40;;;3.27;;
2538;SDS011;1280;49.760;9.664;2023-06-01T00:22:57;10.00;;;3.37;;
2538;SDS011;1280;49.760;9.664;2023-06-01T00:25:37;8.33;;;3.47;;
2538;SDS011;1280;49.760;9.664;2023-06-01T00:28:20;9.70;;;4.10;;
2538;SDS011;1280;49.760;9.664;2023-06-01T00:30:48;6.13;;;3.20;;
2538;SDS011;1280;49.760;9.664;2023-06-01T00:33:22;8.07;;;3.30;;
2538;SDS011;1280;49.760;9.664;2023-06-01T00:35:54;7.60;;;2.90;;
2538;SDS011;1280;49.760;9.664;2023-06-01T00:38:28;6.90;;;3.20;;
2538;SDS011;1280;49.760;9.664;2023-06-01T00:41:08;5.60;;;2.70;;
2538;SDS011;1280;49.760;9.664;2023-06-01T00:43:48;6.37;;;3.30;;
2538;SDS011;1280;49.760;9.664;2023-06-01T00:46:23;6.80;;;3.00;;
2538;SDS011;1280;49.760;9.664;2023-06-01T00:48:55;7.03;;;2.77;;
2538;SDS011;1280;49.760;9.664;2023-06-01T00:51:35;7.30;;;3.30;;
2538;SDS011;1280;49.760;9.664;2023-06-01T00:54:10;6.27;;;3.00;;
2538;SDS011;1280;49.760;9.664;2023-06-01T00:56:45;8.90;;;3.70;;
2538;SDS011;1280;49.760;9.664;2023-06-01T00:59:21;6.53;;;2.43;;
2538;SDS011;1280;49.760;9.664;2023-06-01T01:06:14;8.33;;;3.43;;
2538;SDS011;1280;49.760;9.664;2023-06-01T01:09:10;6.37;;;3.10;;
2538;SDS011;1280;49.760;9.664;2023-06-01T01:11:53;6.60;;;3.27;;
2538;SDS011;1280;49.760;9.664;2023-06-01T01:14:36;10.10;;;3.50;;
2538;SDS011;1280;49.760;9.664;2023-06-01T01:17:21;14.07;;;3.57;;
2538;SDS011;1280;49.760;9.664;2023-06-01T01:20:02;7.83;;;3.17;;
2538;SDS011;1280;49.760;9.664;2023-06-01T01:22:47;14.47;;;3.80;;
2538;SDS011;1280;49.760;9.664;2023-06-01T01:25:48;6.33;;;3.30;;
2538;SDS011;1280;49.760;9.664;2023-06-01T01:28:56;6.30;;;3.10;;
2538;SDS011;1280;49.760;9.664;2023-06-01T01:31:31;7.13;;;3.03;;
2538;SDS011;1280;49.760;9.664;2023-06-01T01:34:04;6.80;;;3.70;;
2538;SDS011;1280;49.760;9.664;2023-06-01T01:36:42;7.87;;;3.10;;
2538;SDS011;1280;49.760;9.664;2023-06-01T01:39:17;6.63;;;3.00;;
2538;SDS011;1280;49.760;9.664;2023-06-01T01:44:54;7.83;;;3.30;;
2538;SDS011;1280;49.760;9.664;2023-06-01T01:47:31;8.20;;;3.13;;
2538;SDS011;1280;49.760;9.664;2023-06-01T01:50:09;7.60;;;3.10;;
2538;SDS011;1280;49.760;9.664;2023-06-01T01:52:42;5.50;;;2.60;;
2538;SDS011;1280;49.760;9.664;2023-06-01T01:55:16;7.00;;;3.07;;
2538;SDS011;1280;49.760;9.664;2023-06-01T01:57:53;10.43;;;3.50;;
2538;SDS011;1280;49.760;9.664;2023-06-01T02:00:38;5.90;;;3.10;;
2538;SDS011;1280;49.760;9.664;2023-06-01T02:03:14;6.20;;;3.00;;
2538;SDS011;1280;49.760;9.664;2023-06-01T02:05:52;7.97;;;3.50;;
2538;SDS011;1280;49.760;9.664;2023-06-01T02:08:30;6.80;;;3.30;;
2538;SDS011;1280;49.760;9.664;2023-06-01T02:11:05;8.33;;;3.20;;
2538;SDS011;1280;49.760;9.664;2023-06-01T02:13:45;8.77;;;3.23;;
2538;SDS011;1280;49.760;9.664;2023-06-01T02:16:23;8.03;;;3.27;;
2538;SDS011;1280;49.760;9.664;2023-06-01T02:18:56;5.63;;;2.93;;
2538;SDS011;1280;49.760;9.664;2023-06-01T02:21:29;7.00;;;3.30;;
2538;SDS011;1280;49.760;9.664;2023-06-01T02:24:02;8.20;;;3.07;;
2538;SDS011;1280;49.760;9.664;2023-06-01T02:26:37;8.53;;;3.20;;
2538;SDS011;1280;49.760;9.664;2023-06-01T02:29:08;8.50;;;3.10;;
2538;SDS011;1280;49.760;9.664;2023-06-01T02:31:45;6.60;;;3.40;;
2538;SDS011;1280;49.760;9.664;2023-06-01T02:34:20;6.70;;;2.80;;
2538;SDS011;1280;49.760;9.664;2023-06-01T02:37:01;6.20;;;2.93;;
2538;SDS011;1280;49.760;9.664;2023-06-01T02:39:42;8.13;;;2.83;;
2538;SDS011;1280;49.760;9.664;2023-06-01T02:42:23;7.70;;;2.80;;
2538;SDS011;1280;49.760;9.664;2023-06-01T02:44:57;5.50;;;2.73;;
2538;SDS011;1280;49.760;9.664;2023-06-01T02:47:38;8.80;;;3.60;;
2538;SDS011;1280;49.760;9.664;2023-06-01T02:50:15;6.13;;;3.13;;
2538;SDS011;1280;49.760;9.664;2023-06-01T02:52:53;7.43;;;3.20;;
2538;SDS011;1280;49.760;9.664;2023-06-01T02:55:28;7.53;;;2.80;;
2538;SDS011;1280;49.760;9.664;2023-06-01T02:58:19;8.10;;;2.70;;
2538;SDS011;1280;49.760;9.664;2023-06-01T03:00:58;7.53;;;2.90;;
2538;SDS011;1280;49.760;9.664;2023-06-01T03:03:33;6.40;;;3.13;;
2538;SDS011;1280;49.760;9.664;2023-06-01T03:06:06;11.43;;;3.60;;
2538;SDS011;1280;49.760;9.664;2023-06-01T03:09:06;6.90;;;3.80;;
2538;SDS011;1280;49.760;9.664;2023-06-01T03:11:55;6.40;;;3.33;;
2538;SDS011;1280;49.760;9.664;2023-06-01T03:14:33;10.50;;;4.30;;
2538;SDS011;1280;49.760;9.664;2023-06-01T03:17:09;7.37;;;3.30;;
2538;SDS011;1280;49.760;9.664;2023-06-01T03:19:47;7.80;;;3.07;;
2538;SDS011;1280;49.760;9.664;2023-06-01T03:22:23;7.40;;;3.53;;
2538;SDS011;1280;49.760;9.664;2023-06-01T03:24:56;7.03;;;3.33;;
2538;SDS011;1280;49.760;9.664;2023-06-01T03:27:37;7.53;;;3.13;;
2538;SDS011;1280;49.760;9.664;2023-06-01T03:30:16;5.93;;;3.47;;
2538;SDS011;1280;49.760;9.664;2023-06-01T03:32:55;8.87;;;3.80;;
2538;SDS011;1280;49.760;9.664;2023-06-01T03:38:40;6.20;;;3.07;;
2538;SDS011;1280;49.760;9.664;2023-06-01T03:41:17;8.07;;;2.97;;
2538;SDS011;1280;49.760;9.664;2023-06-01T03:43:53;7.30;;;3.20;;
2538;SDS011;1280;49.760;9.664;2023-06-01T03:46:38;10.37;;;3.40;;
2538;SDS011;1280;49.760;9.664;2023-06-01T03:49:09;9.67;;;3.80;;
2538;SDS011;1280;49.760;9.664;2023-06-01T03:51:39;7.87;;;3.80;;
2538;SDS011;1280;49.760;9.664;2023-06-01T03:54:21;13.10;;;3.63;;
2538;SDS011;1280;49.760;9.664;2023-06-01T03:56:56;6.37;;;2.60;;
2538;SDS011;1280;49.760;9.664;2023-06-01T03:59:29;7.03;;;3.90;;
2538;SDS011;1280;49.760;9.664;2023-06-01T04:02:08;6.60;;;3.70;;
2538;SDS011;1280;49.760;9.664;2023-06-01T04:04:44;6.57;;;3.60;;
2538;SDS011;1280;49.760;9.664;2023-06-01T04:07:20;7.60;;;3.67;;
2538;SDS011;1280;49.760;9.664;2023-06-01T04:09:55;8.33;;;3.73;;
2538;SDS011;1280;49.760;9.664;2023-06-01T04:12:30;8.50;;;3.47;;
2538;SDS011;1280;49.760;9.664;2023-06-01T04:15:08;9.37;;;4.03;;
2538;SDS011;1280;49.760;9.664;2023-06-01T04:17:43;10.67;;;3.63;;
2538;SDS011;1280;49.760;9.664;2023-06-01T04:20:24;6.70;;;3.53;;
2538;SDS011;1280;49.760;9.664;2023-06-01T04:23:01;7.83;;;4.10;;
2538;SDS011;1280;49.760;9.664;2023-06-01T04:25:37;7.60;;;4.30;;
2538;SDS011;1280;49.760;9.664;2023-06-01T04:28:14;8.10;;;3.30;;
2538;SDS011;1280;49.760;9.664;2023-06-01T04:30:54;7.37;;;3.30;;
2538;SDS011;1280;49.760;9.664;2023-06-01T04:33:36;9.30;;;4.03;;
2538;SDS011;1280;49.760;9.664;2023-06-01T04:36:26;9.27;;;3.57;;
2538;SDS011;1280;49.760;9.664;2023-06-01T04:39:03;10.23;;;3.80;;
2538;SDS011;1280;49.760;9.664;2023-06-01T04:41:46;10.27;;;4.30;;
2538;SDS011;1280;49.760;9.664;2023-06-01T04:44:29;11.33;;;3.93;;
2538;SDS011;1280;49.760;9.664;2023-06-01T04:47:10;8.20;;;3.90;;
2538;SDS011;1280;49.760;9.664;2023-06-01T04:49:49;9.33;;;3.80;;
2538;SDS011;1280;49.760;9.664;2023-06-01T04:52:24;8.13;;;3.70;;
2538;SDS011;1280;49.760;9.664;2023-06-01T04:54:58;7.23;;;3.17;;
2538;SDS011;1280;49.760;9.664;2023-06-01T04:57:42;8.80;;;3.50;;
2538;SDS011;1280;49.760;9.664;2023-06-01T05:00:16;7.23;;;3.60;;
2538;SDS011;1280;49.760;9.664;2023-06-01T05:02:54;9.53;;;3.70;;
2538;SDS011;1280;49.760;9.664;2023-06-01T05:05:26;7.70;;;3.80;;
2538;SDS011;1280;49.760;9.664;2023-06-01T05:07:55;7.70;;;3.50;;
2538;SDS011;1280;49.760;9.664;2023-06-01T05:10:35;7.70;;;4.13;;
2538;SDS011;1280;49.760;9.664;2023-06-01T05:13:10;8.10;;;3.90;;
2538;SDS011;1280;49.760;9.664;2023-06-01T05:15:42;6.70;;;3.50;;
2538;SDS011;1280;49.760;9.664;2023-06-01T05:18:17;6.50;;;3.70;;
2538;SDS011;1280;49.760;9.664;2023-06-01T05:20:48;6.73;;;3.70;;
2538;SDS011;1280;49.760;9.664;2023-06-01T05:23:24;12.70;;;3.90;;
2538;SDS011;1280;49.760;9.664;2023-06-01T05:25:58;7.83;;;3.93;;
2538;SDS011;1280;49.760;9.664;2023-06-01T05:28:44;9.07;;;4.40;;
2538;SDS011;1280;49.760;9.664;2023-06-01T05:31:19;7.07;;;3.27;;
2538;SDS011;1280;49.760;9.664;2023-06-01T05:33:55;8.50;;;4.40;;
2538;SDS011;1280;49.760;9.664;2023-06-01T05:36:34;8.23;;;4.00;;
2538;SDS011;1280;49.760;9.664;2023-06-01T05:39:13;7.33;;;3.27;;
2538;SDS011;1280;49.760;9.664;2023-06-01T05:41:57;7.70;;;3.57;;
2538;SDS011;1280;49.760;9.664;2023-06-01T05:44:38;7.10;;;3.30;;
2538;SDS011;1280;49.760;9.664;2023-06-01T05:47:07;9.90;;;3.13;;
2538;SDS011;1280;49.760;9.664;2023-06-01T05:49:48;9.23;;;3.07;;
2538;SDS011;1280;49.760;9.664;2023-06-01T05:52:26;7.47;;;3.10;;
2538;SDS011;1280;49.760;9.664;2023-06-01T05:55:01;9.30;;;3.27;;
2538;SDS011;1280;49.760;9.664;2023-06-01T05:57:35;10.13;;;3.00;;
2538;SDS011;1280;49.760;9.664;2023-06-01T06:00:10;13.00;;;3.20;;
2538;SDS011;1280;49.760;9.664;2023-06-01T06:02:42;7.27;;;2.67;;
2538;SDS011;1280;49.760;9.664;2023-06-01T06:05:12;8.83;;;3.10;;
2538;SDS011;1280;49.760;9.664;2023-06-01T06:07:49;8.00;;;3.33;;
2538;SDS011;1280;49.760;9.664;2023-06-01T06:10:19;5.70;;;2.50;;
2538;SDS011;1280;49.760;9.664;2023-06-01T06:12:57;10.93;;;3.27;;
2538;SDS011;1280;49.760;9.664;2023-06-01T06:15:39;8.00;;;2.60;;
2538;SDS011;1280;49.760;9.664;2023-06-01T06:18:11;5.90;;;2.53;;
2538;SDS011;1280;49.760;9.664;2023-06-01T06:20:48;7.47;;;3.30;;
2538;SDS011;1280;49.760;9.664;2023-06-01T06:23:25;11.00;;;3.10;;
2538;SDS011;1280;49.760;9.664;2023-06-01T06:26:01;8.10;;;3.10;;
2538;SDS011;1280;49.760;9.664;2023-06-01T06:28:31;7.73;;;2.63;;
2538;SDS011;1280;49.760;9.664;2023-06-01T06:31:07;7.93;;;2.80;;
2538;SDS011;1280;49.760;9.664;2023-06-01T06:33:41;9.50;;;3.17;;
2538;SDS011;1280;49.760;9.664;2023-06-01T06:36:13;7.00;;;2.97;;
2538;SDS011;1280;49.760;9.664;2023-06-01T06:38:45;6.50;;;3.70;;
2538;SDS011;1280;49.760;9.664;2023-06-01T06:41:22;7.30;;;2.80;;
2538;SDS011;1280;49.760;9.664;2023-06-01T06:43:53;9.47;;;3.00;;
2538;SDS011;1280;49.760;9.664;2023-06-01T06:46:31;6.47;;;2.60;;
2538;SDS011;1280;49.760;9.664;2023-06-01T06:49:05;9.33;;;3.00;;
2538;SDS011;1280;49.760;9.664;2023-06-01T06:51:44;9.77;;;3.33;;
2538;SDS011;1280;49.760;9.664;2023-06-01T06:54:16;7.93;;;3.00;;
2538;SDS011;1280;49.760;9.664;2023-06-01T06:56:47;7.53;;;2.77;;
2538;SDS011;1280;49.760;9.664;2023-06-01T06:59:20;7.23;;;2.87;;
2538;SDS011;1280;49.760;9.664;2023-06-01T07:02:14;6.73;;;2.90;;
2538;SDS011;1280;49.760;9.664;2023-06-01T07:04:47;8.03;;;3.17;;
2538;SDS011;1280;49.760;9.664;2023-06-01T07:07:26;8.40;;;3.00;;
2538;SDS011;1280;49.760;9.664;2023-06-01T07:09:57;11.90;;;3.20;;
2538;SDS011;1280;49.760;9.664;2023-06-01T07:12:34;9.00;;;3.30;;
2538;SDS011;1280;49.760;9.664;2023-06-01T07:15:16;8.13;;;2.40;;
2538;SDS011;1280;49.760;9.664;2023-06-01T07:17:54;11.80;;;3.57;;
2538;SDS011;1280;49.760;9.664;2023-06-01T07:20:30;6.20;;;2.80;;
2538;SDS011;1280;49.760;9.664;2023-06-01T07:23:02;7.67;;;3.27;;
2538;SDS011;1280;49.760;9.664;2023-06-01T07:25:37;10.30;;;2.90;;
2538;SDS011;1280;49.760;9.664;2023-06-01T07:28:07;15.73;;;3.47;;
2538;SDS011;1280;49.760;9.664;2023-06-01T07:30:36;9.47;;;3.00;;
2538;SDS011;1280;49.760;9.664;2023-06-01T07:33:11;6.93;;;2.73;;
2538;SDS011;1280;49.760;9.664;2023-06-01T07:35:48;8.93;;;2.93;;
2538;SDS011;1280;49.760;9.664;2023-06-01T07:38:33;5.80;;;2.80;;
2538;SDS011;1280;49.760;9.664;2023-06-01T07:41:09;8.73;;;2.73;;
2538;SDS011;1280;49.760;9.664;2023-06-01T07:43:49;10.27;;;2.53;;
2538;SDS011;1280;49.760;9.664;2023-06-01T07:46:28;7.97;;;3.73;;
2538;SDS011;1280;49.760;9.664;2023-06-01T07:49:17;6.70;;;2.93;;
2538;SDS011;1280;49.760;9.664;2023-06-01T07:51:52;7.27;;;2.37;;
2538;SDS011;1280;49.760;9.664;2023-06-01T07:54:33;8.23;;;2.83;;
2538;SDS011;1280;49.760;9.664;2023-06-01T07:57:04;6.80;;;2.60;;
2538;SDS011;1280;49.760;9.664;2023-06-01T07:59:48;5.63;;;2.60;;
2538;SDS011;1280;49.760;9.664;2023-06-01T08:02:24;9.70;;;3.47;;
2538;SDS011;1280;49.760;9.664;2023-06-01T08:05:01;7.43;;;3.10;;
2538;SDS011;1280;49.760;9.664;2023-06-01T08:07:39;9.83;;;2.70;;
2538;SDS011;1280;49.760;9.664;2023-06-01T08:10:13;9.23;;;2.40;;
2538;SDS011;1280;49.760;9.664;2023-06-01T08:12:48;8.17;;;2.83;;
2538;SDS011;1280;49.760;9.664;2023-06-01T08:15:21;10.40;;;2.90;;
2538;SDS011;1280;49.760;9.664;2023-06-01T08:17:56;8.63;;;2.80;;
2538;SDS011;1280;49.760;9.664;2023-06-01T08:20:41;8.13;;;2.60;;
2538;SDS011;1280;49.760;9.664;2023-06-01T08:23:11;5.90;;;2.73;;
2538;SDS011;1280;49.760;9.664;2023-06-01T08:25:47;5.50;;;2.70;;
2538;SDS011;1280;49.760;9.664;2023-06-01T08:28:26;7.80;;;3.20;;
2538;SDS011;1280;49.760;9.664;2023-06-01T08:30:56;8.67;;;2.90;;
2538;SDS011;1280;49.760;9.664;2023-06-01T08:33:40;8.00;;;2.93;;
2538;SDS011;1280;49.760;9.664;2023-06-01T08:36:17;8.53;;;3.00;;
2538;SDS011;1280;49.760;9.664;2023-06-01T08:38:48;6.07;;;2.73;;
2538;SDS011;1280;49.760;9.664;2023-06-01T08:41:30;9.57;;;2.87;;
2538;SDS011;1280;49.760;9.664;2023-06-01T08:44:07;8.67;;;2.90;;
2538;SDS011;1280;49.760;9.664;2023-06-01T08:46:44;8.30;;;2.90;;
2538;SDS011;1280;49.760;9.664;2023-06-01T08:49:22;8.43;;;3.00;;
2538;SDS011;1280;49.760;9.664;2023-06-01T08:52:09;13.27;;;3.17;;
2538;SDS011;1280;49.760;9.664;2023-06-01T08:54:47;8.67;;;3.40;;
2538;SDS011;1280;49.760;9.664;2023-06-01T08:57:17;6.97;;;2.50;;
2538;SDS011;1280;49.760;9.664;2023-06-01T08:59:48;7.70;;;3.00;;
2538;SDS011;1280;49.760;9.664;2023-06-01T09:02:22;7.47;;;2.70;;
2538;SDS011;1280;49.760;9.664;2023-06-01T09:04:54;8.00;;;2.67;;
2538;SDS011;1280;49.760;9.664;2023-06-01T09:07:31;7.80;;;2.30;;
2538;SDS011;1280;49.760;9.664;2023-06-01T09:10:04;7.53;;;2.70;;
2538;SDS011;1280;49.760;9.664;2023-06-01T09:12:50;5.33;;;2.30;;
2538;SDS011;1280;49.760;9.664;2023-06-01T09:15:26;7.00;;;2.37;;
2538;SDS011;1280;49.760;9.664;2023-06-01T09:18:06;6.90;;;2.73;;
2538;SDS011;1280;49.760;9.664;2023-06-01T09:20:40;7.40;;;2.30;;
2538;SDS011;1280;49.760;9.664;2023-06-01T09:23:27;7.83;;;2.80;;
2538;SDS011;1280;49.760;9.664;2023-06-01T09:26:04;11.50;;;2.77;;
2538;SDS011;1280;49.760;9.664;2023-06-01T09:28:53;8.73;;;2.70;;
2538;SDS011;1280;49.760;9.664;2023-06-01T09:31:39;5.53;;;2.43;;
2538;SDS011;1280;49.760;9.664;2023-06-01T09:34:15;7.47;;;2.50;;
2538;SDS011;1280;49.760;9.664;2023-06-01T09:36:52;10.10;;;2.60;;
2538;SDS011;1280;49.760;9.664;2023-06-01T09:39:33;7.13;;;2.33;;
2538;SDS011;1280;49.760;9.664;2023-06-01T09:42:07;5.47;;;2.23;;
2538;SDS011;1280;49.760;9.664;2023-06-01T09:44:39;9.23;;;3.00;;
2538;SDS011;1280;49.760;9.664;2023-06-01T09:47:13;7.93;;;2.10;;
2538;SDS011;1280;49.760;9.664;2023-06-01T09:49:46;13.10;;;3.03;;
2538;SDS011;1280;49.760;9.664;2023-06-01T09:52:33;8.83;;;2.40;;
2538;SDS011;1280;49.760;9.664;2023-06-01T09:55:20;5.80;;;2.10;;
2538;SDS011;1280;49.760;9.664;2023-06-01T09:57:49;7.50;;;2.57;;
2538;SDS011;1280;49.760;9.664;2023-06-01T10:00:21;5.47;;;2.50;;
2538;SDS011;1280;49.760;9.664;2023-06-01T10:02:56;10.77;;;2.73;;
2538;SDS011;1280;49.760;9.664;2023-06-01T10:05:28;6.20;;;1.90;;
2538;SDS011;1280;49.760;9.664;2023-06-01T10:07:58;6.77;;;2.10;;
2538;SDS011;1280;49.760;9.664;2023-06-01T10:10:44;8.10;;;2.23;;
2538;SDS011;1280;49.760;9.664;2023-06-01T10:13:17;9.60;;;2.33;;
2538;SDS011;1280;49.760;9.664;2023-06-01T10:15:53;7.03;;;1.90;;
2538;SDS011;1280;49.760;9.664;2023-06-01T10:18:36;9.53;;;2.17;;
2538;SDS011;1280;49.760;9.664;2023-06-01T10:21:10;6.07;;;2.93;;
2538;SDS011;1280;49.760;9.664;2023-06-01T10:23:43;6.80;;;2.30;;
2538;SDS011;1280;49.760;9.664;2023-06-01T10:26:43;6.53;;;2.47;;
2538;SDS011;1280;49.760;9.664;2023-06-01T10:29:31;12.27;;;2.70;;
2538;SDS011;1280;49.760;9.664;2023-06-01T10:38:31;6.53;;;2.20;;
2538;SDS011;1280;49.760;9.664;2023-06-01T10:44:14;6.87;;;2.17;;
2538;SDS011;1280;49.760;9.664;2023-06-01T10:50:26;7.73;;;2.47;;
2538;SDS011;1280;49.760;9.664;2023-06-01T10:59:13;10.50;;;3.07;;
2538;SDS011;1280;49.760;9.664;2023-06-01T11:01:46;4.70;;;2.00;;
2538;SDS011;1280;49.760;9.664;2023-06-01T11:04:34;6.70;;;2.40;;
2538;SDS011;1280;49.760;9.664;2023-06-01T11:13:29;7.67;;;2.10;;
2538;SDS011;1280;49.760;9.664;2023-06-01T11:16:31;9.57;;;2.43;;
2538;SDS011;1280;49.760;9.664;2023-06-01T11:19:02;6.73;;;2.27;;
2538;SDS011;1280;49.760;9.664;2023-06-01T11:21:33;5.90;;;2.50;;
2538;SDS011;1280;49.760;9.664;2023-06-01T11:24:09;8.93;;;2.80;;
2538;SDS011;1280;49.760;9.664;2023-06-01T11:26:46;5.90;;;2.00;;
2538;SDS011;1280;49.760;9.664;2023-06-01T11:29:26;12.03;;;2.37;;
2538;SDS011;1280;49.760;9.664;2023-06-01T11:32:04;6.93;;;2.57;;
2538;SDS011;1280;49.760;9.664;2023-06-01T11:34:40;8.00;;;2.37;;
2538;SDS011;1280;49.760;9.664;2023-06-01T11:37:12;8.37;;;2.20;;
2538;SDS011;1280;49.760;9.664;2023-06-01T11:39:41;6.70;;;2.43;;
2538;SDS011;1280;49.760;9.664;2023-06-01T11:42:14;5.00;;;2.20;;
2538;SDS011;1280;49.760;9.664;2023-06-01T11:44:56;8.53;;;2.80;;
2538;SDS011;1280;49.760;9.664;2023-06-01T11:47:32;9.90;;;2.93;;
2538;SDS011;1280;49.760;9.664;2023-06-01T11:50:06;8.70;;;3.03;;
2538;SDS011;1280;49.760;9.664;2023-06-01T11:52:55;6.37;;;2.20;;
2538;SDS011;1280;49.760;9.664;2023-06-01T11:55:31;7.10;;;2.37;;
2538;SDS011;1280;49.760;9.664;2023-06-01T11:58:11;5.40;;;1.87;;
2538;SDS011;1280;49.760;9.664;2023-06-01T12:00:45;5.90;;;2.03;;
2538;SDS011;1280;49.760;9.664;2023-06-01T12:03:23;10.03;;;2.27;;
2538;SDS011;1280;49.760;9.664;2023-06-01T12:05:58;8.87;;;2.40;;
2538;SDS011;1280;49.760;9.664;2023-06-01T12:08:38;6.90;;;2.30;;
2538;SDS011;1280;49.760;9.664;2023-06-01T12:11:15;7.50;;;2.27;;
2538;SDS011;1280;49.760;9.664;2023-06-01T12:13:46;7.40;;;2.43;;
2538;SDS011;1280;49.760;9.664;2023-06-01T12:16:19;7.57;;;2.57;;
2538;SDS011;1280;49.760;9.664;2023-06-01T12:19:00;7.50;;;2.83;;
2538;SDS011;1280;49.760;9.664;2023-06-01T12:21:46;8.70;;;2.70;;
2538;SDS011;1280;49.760;9.664;2023-06-01T12:24:26;7.70;;;2.27;;
2538;SDS011;1280;49.760;9.664;2023-06-01T12:27:01;7.57;;;2.27;;
2538;SDS011;1280;49.760;9.664;2023-06-01T12:29:43;7.50;;;2.47;;
2538;SDS011;1280;49.760;9.664;2023-06-01T12:32:33;11.67;;;2.13;;
2538;SDS011;1280;49.760;9.664;2023-06-01T12:35:19;7.47;;;2.23;;
2538;SDS011;1280;49.760;9.664;2023-06-01T12:38:02;10.27;;;3.10;;
2538;SDS011;1280;49.760;9.664;2023-06-01T12:40:35;8.63;;;2.40;;
2538;SDS011;1280;49.760;9.664;2023-06-01T12:43:17;7.43;;;2.40;;
2538;SDS011;1280;49.760;9.664;2023-06-01T12:45:47;7.17;;;2.77;;
2538;SDS011;1280;49.760;9.664;2023-06-01T12:48:32;6.23;;;2.10;;
2538;SDS011;1280;49.760;9.664;2023-06-01T12:51:09;8.70;;;2.50;;
2538;SDS011;1280;49.760;9.664;2023-06-01T12:53:44;12.43;;;2.93;;
2538;SDS011;1280;49.760;9.664;2023-06-01T12:56:13;6.50;;;2.60;;
2538;SDS011;1280;49.760;9.664;2023-06-01T12:58:48;9.50;;;2.63;;
2538;SDS011;1280;49.760;9.664;2023-06-01T13:01:27;6.10;;;2.13;;
2538;SDS011;1280;49.760;9.664;2023-06-01T13:03:57;6.00;;;1.97;;
2538;SDS011;1280;49.760;9.664;2023-06-01T13:06:34;6.57;;;2.17;;
2538;SDS011;1280;49.760;9.664;2023-06-01T13:09:08;9.33;;;2.60;;
2538;SDS011;1280;49.760;9.664;2023-06-01T13:11:41;7.40;;;2.70;;
2538;SDS011;1280;49.760;9.664;2023-06-01T13:14:12;6.37;;;2.30;;
2538;SDS011;1280;49.760;9.664;2023-06-01T13:16:44;6.90;;;2.50;;
2538;SDS011;1280;49.760;9.664;2023-06-01T13:19:23;4.93;;;2.30;;
2538;SDS011;1280;49.760;9.664;2023-06-01T13:22:02;6.60;;;2.57;;
2538;SDS011;1280;49.760;9.664;2023-06-01T13:24:35;9.03;;;2.53;;
2538;SDS011;1280;49.760;9.664;2023-06-01T13:27:25;6.40;;;2.57;;
2538;SDS011;1280;49.760;9.664;2023-06-01T13:29:58;6.80;;;2.50;;
2538;SDS011;1280;49.760;9.664;2023-06-01T13:32:38;5.83;;;2.47;;
2538;SDS011;1280;49.760;9.664;2023-06-01T13:35:13;7.97;;;2.43;;
2538;SDS011;1280;49.760;9.664;2023-06-01T13:37:53;6.10;;;2.10;;
2538;SDS011;1280;49.760;9.664;2023-06-01T13:40:24;8.53;;;2.70;;
2538;SDS011;1280;49.760;9.664;2023-06-01T13:42:53;8.53;;;2.47;;
2538;SDS011;1280;49.760;9.664;2023-06-01T13:45:29;7.10;;;2.40;;
2538;SDS011;1280;49.760;9.664;2023-06-01T13:48:04;7.97;;;3.00;;
2538;SDS011;1280;49.760;9.664;2023-06-01T13:50:39;7.93;;;2.83;;
2538;SDS011;1280;49.760;9.664;2023-06-01T13:53:24;6.80;;;2.40;;
2538;SDS011;1280;49.760;9.664;2023-06-01T13:55:59;8.57;;;3.07;;
2538;SDS011;1280;49.760;9.664;2023-06-01T13:58:39;6.87;;;2.67;;
2538;SDS011;1280;49.760;9.664;2023-06-01T14:01:15;8.70;;;2.50;;
2538;SDS011;1280;49.760;9.664;2023-06-01T14:03:53;6.77;;;3.00;;
2538;SDS011;1280;49.760;9.664;2023-06-01T14:06:25;6.10;;;2.80;;
2538;SDS011;1280;49.760;9.664;2023-06-01T14:08:58;7.60;;;2.33;;
2538;SDS011;1280;49.760;9.664;2023-06-01T14:11:34;7.00;;;2.70;;
2538;SDS011;1280;49.760;9.664;2023-06-01T14:14:04;9.20;;;2.83;;
2538;SDS011;1280;49.760;9.664;2023-06-01T14:16:34;5.63;;;2.47;;
2538;SDS011;1280;49.760;9.664;2023-06-01T14:19:13;6.87;;;2.87;;
2538;SDS011;1280;49.760;9.664;2023-06-01T14:30:26;7.43;;;2.37;;
2538;SDS011;1280;49.760;9.664;2023-06-01T14:33:01;8.20;;;3.10;;
2538;SDS011;1280;49.760;9.664;2023-06-01T14:35:35;9.87;;;3.27;;
2538;SDS011;1280;49.760;9.664;2023-06-01T14:38:17;8.00;;;3.00;;
2538;SDS011;1280;49.760;9.664;2023-06-01T14:40:50;8.77;;;2.40;;
2538;SDS011;1280;49.760;9.664;2023-06-01T14:43:24;8.33;;;3.03;;
2538;SDS011;1280;49.760;9.664;2023-06-01T14:46:06;5.47;;;2.67;;
2538;SDS011;1280;49.760;9.664;2023-06-01T14:48:43;8.20;;;3.20;;
2538;SDS011;1280;49.760;9.664;2023-06-01T14:51:20;6.77;;;2.50;;
2538;SDS011;1280;49.760;9.664;2023-06-01T14:53:53;5.57;;;2.60;;
2538;SDS011;1280;49.760;9.664;2023-06-01T14:56:31;6.03;;;3.27;;
2538;SDS011;1280;49.760;9.664;2023-06-01T14:59:02;8.27;;;3.07;;
2538;SDS011;1280;49.760;9.664;2023-06-01T15:01:46;8.60;;;3.27;;
2538;SDS011;1280;49.760;9.664;2023-06-01T15:04:20;7.93;;;2.50;;
2538;SDS011;1280;49.760;9.664;2023-06-01T15:07:00;6.23;;;2.50;;
2538;SDS011;1280;49.760;9.664;2023-06-01T15:09:38;7.00;;;3.20;;
2538;SDS011;1280;49.760;9.664;2023-06-01T15:12:12;6.60;;;2.70;;
2538;SDS011;1280;49.760;9.664;2023-06-01T15:14:50;7.43;;;2.80;;
2538;SDS011;1280;49.760;9.664;2023-06-01T15:17:29;9.33;;;3.13;;
2538;SDS011;1280;49.760;9.664;2023-06-01T15:20:01;8.60;;;2.97;;
2538;SDS011;1280;49.760;9.664;2023-06-01T15:22:34;13.80;;;2.70;;
2538;SDS011;1280;49.760;9.664;2023-06-01T15:25:07;7.63;;;2.70;;
2538;SDS011;1280;49.760;9.664;2023-06-01T15:27:48;7.90;;;2.70;;
2538;SDS011;1280;49.760;9.664;2023-06-01T15:30:21;6.20;;;2.57;;
2538;SDS011;1280;49.760;9.664;2023-06-01T15:32:56;7.20;;;3.07;;
2538;SDS011;1280;49.760;9.664;2023-06-01T15:35:36;9.37;;;2.40;;
2538;SDS011;1280;49.760;9.664;2023-06-01T15:38:16;6.37;;;2.60;;
2538;SDS011;1280;49.760;9.664;2023-06-01T15:40:46;8.30;;;2.50;;
2538;SDS011;1280;49.760;9.664;2023-06-01T15:43:20;10.00;;;3.00;;
2538;SDS011;1280;49.760;9.664;2023-06-01T15:45:53;7.60;;;3.23;;
2538;SDS011;1280;49.760;9.664;2023-06-01T15:48:34;8.87;;;2.77;;
2538;SDS011;1280;49.760;9.664;2023-06-01T15:51:07;8.40;;;3.23;;
2538;SDS011;1280;49.760;9.664;2023-06-01T15:53:40;11.63;;;2.80;;
2538;SDS011;1280;49.760;9.664;2023-06-01T15:56:19;5.87;;;2.50;;
2538;SDS011;1280;49.760;9.664;2023-06-01T15:58:50;7.07;;;2.67;;
2538;SDS011;1280;49.760;9.664;2023-06-01T16:01:29;7.60;;;2.60;;
2538;SDS011;1280;49.760;9.664;2023-06-01T16:04:00;9.30;;;3.20;;
2538;SDS011;1280;49.760;9.664;2023-06-01T16:06:32;7.20;;;2.37;;
2538;SDS011;1280;49.760;9.664;2023-06-01T16:09:06;6.00;;;2.73;;
2538;SDS011;1280;49.760;9.664;2023-06-01T16:11:44;6.97;;;2.93;;
2538;SDS011;1280;49.760;9.664;2023-06-01T16:14:23;7.10;;;2.87;;
2538;SDS011;1280;49.760;9.664;2023-06-01T16:17:01;7.40;;;2.77;;
2538;SDS011;1280;49.760;9.664;2023-06-01T16:19:36;7.03;;;2.20;;
2538;SDS011;1280;49.760;9.664;2023-06-01T16:22:15;8.00;;;2.63;;
2538;SDS011;1280;49.760;9.664;2023-06-01T16:24:50;11.73;;;2.60;;
2538;SDS011;1280;49.760;9.664;2023-06-01T16:27:24;6.90;;;2.47;;
2538;SDS011;1280;49.760;9.664;2023-06-01T16:29:57;6.37;;;2.53;;
2538;SDS011;1280;49.760;9.664;2023-06-01T16:32:41;7.27;;;2.60;;
2538;SDS011;1280;49.760;9.664;2023-06-01T16:35:26;9.17;;;2.93;;
2538;SDS011;1280;49.760;9.664;2023-06-01T16:37:58;8.30;;;2.60;;
2538;SDS011;1280;49.760;9.664;2023-06-01T16:40:43;6.80;;;2.47;;
2538;SDS011;1280;49.760;9.664;2023-06-01T16:43:20;5.27;;;2.30;;
2538;SDS011;1280;49.760;9.664;2023-06-01T16:45:52;10.07;;;2.60;;
2538;SDS011;1280;49.760;9.664;2023-06-01T16:48:30;16.30;;;2.83;;
2538;SDS011;1280;49.760;9.664;2023-06-01T16:51:22;6.57;;;2.30;;
2538;SDS011;1280;49.760;9.664;2023-06-01T16:53:54;5.57;;;2.20;;
2538;SDS011;1280;49.760;9.664;2023-06-01T16:56:24;6.27;;;2.40;;
2538;SDS011;1280;49.760;9.664;2023-06-01T16:58:57;7.20;;;2.27;;
2538;SDS011;1280;49.760;9.664;2023-06-01T17:01:32;5.80;;;2.10;;